EJU161A LFBZ-LFLL
Flight info
| Callsign | EJU161A |
|---|---|
| Flight time | 0h 54m |
| Altitude | 30000 |
| Route | SOVOS G17 ORTEZ DCT TBO DCT GONUP DCT TOU DCT GAI DCT MEN/N0378F260 DCT NINUN G53 MEZIN |
| Aircraft | A320/M-SDE2E3FGHIJ1RWXYZ/LB1 |
Departure
| Time | 2026-04-20 13:25 |
|---|---|
| Airport | Biarritz Pays Basque airport (LFBZ) |
Arrival
| Time | 2026-04-20 14:20 |
|---|---|
| Airport | Lyon Saint-Exupéry Airport (LFLL) |
| Time | Latitude | Longitude | Altitude | Speed | Heading |
|---|---|---|---|---|---|
| 2026-04-20 12:51 | 43.47131 | -1.52999 | 245 ft | 0 kts | 0° |
| 2026-04-20 13:17 | 43.47128 | -1.52999 | 245 ft | 3 kts | 0° |
| 2026-04-20 13:18 | 43.47102 | -1.52999 | 245 ft | 4 kts | 360° |
| 2026-04-20 13:18 | 43.47075 | -1.52996 | 245 ft | 4 kts | 338° |
| 2026-04-20 13:18 | 43.47055 | -1.52977 | 245 ft | 4 kts | 289° |
| 2026-04-20 13:18 | 43.47052 | -1.52959 | 245 ft | 1 kts | 271° |
| 2026-04-20 13:19 | 43.47052 | -1.52957 | 245 ft | 0 kts | 271° |
| 2026-04-20 13:21 | 43.47053 | -1.52966 | 245 ft | 4 kts | 271° |
| 2026-04-20 13:21 | 43.47054 | -1.53038 | 245 ft | 10 kts | 270° |
| 2026-04-20 13:21 | 43.47050 | -1.53128 | 245 ft | 10 kts | 257° |
| 2026-04-20 13:22 | 43.46976 | -1.53192 | 245 ft | 14 kts | 182° |
| 2026-04-20 13:22 | 43.46888 | -1.53161 | 245 ft | 12 kts | 161° |
| 2026-04-20 13:22 | 43.46840 | -1.53182 | 246 ft | 7 kts | 243° |
| 2026-04-20 13:22 | 43.46823 | -1.53308 | 247 ft | 20 kts | 270° |
| 2026-04-20 13:23 | 43.46821 | -1.53553 | 246 ft | 29 kts | 269° |
| 2026-04-20 13:23 | 43.46853 | -1.53699 | 244 ft | 10 kts | 256° |
| 2026-04-20 13:23 | 43.46831 | -1.53706 | 245 ft | 4 kts | 170° |
| 2026-04-20 13:23 | 43.46818 | -1.53678 | 246 ft | 3 kts | 109° |
| 2026-04-20 13:24 | 43.46818 | -1.53671 | 246 ft | 0 kts | 88° |
| 2026-04-20 13:24 | 43.46819 | -1.53614 | 246 ft | 32 kts | 89° |
| 2026-04-20 13:24 | 43.46830 | -1.52923 | 246 ft | 109 kts | 88° |
| 2026-04-20 13:24 | 43.46844 | -1.51588 | 238 ft | 168 kts | 91° |
| 2026-04-20 13:25 | 43.46842 | -1.49933 | 788 ft | 172 kts | 87° |
| 2026-04-20 13:25 | 43.46829 | -1.48284 | 1535 ft | 171 kts | 88° |
| 2026-04-20 13:25 | 43.46846 | -1.46582 | 2072 ft | 186 kts | 89° |
| 2026-04-20 13:25 | 43.46697 | -1.44735 | 2523 ft | 206 kts | 101° |
| 2026-04-20 13:26 | 43.46378 | -1.42686 | 2994 ft | 231 kts | 102° |
| 2026-04-20 13:26 | 43.46005 | -1.40417 | 3429 ft | 255 kts | 103° |
| 2026-04-20 13:26 | 43.45602 | -1.37970 | 4080 ft | 267 kts | 103° |
| 2026-04-20 13:26 | 43.45190 | -1.35453 | 4888 ft | 273 kts | 103° |
| 2026-04-20 13:27 | 43.44774 | -1.32879 | 5718 ft | 279 kts | 103° |
| 2026-04-20 13:27 | 43.44355 | -1.30252 | 6514 ft | 284 kts | 103° |
| 2026-04-20 13:27 | 43.43931 | -1.27575 | 7287 ft | 288 kts | 103° |
| 2026-04-20 13:27 | 43.43505 | -1.24860 | 8064 ft | 293 kts | 103° |
| 2026-04-20 13:28 | 43.43219 | -1.23033 | 8560 ft | 297 kts | 103° |
| 2026-04-20 13:28 | 43.42778 | -1.20224 | 9329 ft | 303 kts | 103° |
| 2026-04-20 13:28 | 43.42328 | -1.17375 | 10071 ft | 308 kts | 103° |
| 2026-04-20 13:28 | 43.41860 | -1.14419 | 10436 ft | 328 kts | 103° |
| 2026-04-20 13:29 | 43.41381 | -1.11242 | 10735 ft | 347 kts | 101° |
| 2026-04-20 13:29 | 43.40805 | -1.06856 | 11589 ft | 356 kts | 100° |
| 2026-04-20 13:29 | 43.40524 | -1.04582 | 12075 ft | 358 kts | 99° |
| 2026-04-20 13:29 | 43.40109 | -1.01190 | 12802 ft | 362 kts | 99° |
| 2026-04-20 13:30 | 43.39684 | -0.97762 | 13530 ft | 365 kts | 100° |
| 2026-04-20 13:30 | 43.39248 | -0.94307 | 14179 ft | 369 kts | 100° |
| 2026-04-20 13:30 | 43.38799 | -0.90813 | 14810 ft | 373 kts | 100° |
| 2026-04-20 13:30 | 43.38350 | -0.87278 | 15429 ft | 377 kts | 99° |
| 2026-04-20 13:31 | 43.37923 | -0.83704 | 16035 ft | 381 kts | 98° |
| 2026-04-20 13:31 | 43.37513 | -0.80136 | 16632 ft | 385 kts | 98° |
| 2026-04-20 13:31 | 43.37098 | -0.76486 | 17235 ft | 389 kts | 98° |
| 2026-04-20 13:31 | 43.36676 | -0.72794 | 17832 ft | 393 kts | 98° |
| 2026-04-20 13:32 | 43.36452 | -0.69042 | 18372 ft | 396 kts | 91° |
| 2026-04-20 13:32 | 43.36326 | -0.65242 | 18897 ft | 400 kts | 91° |
| 2026-04-20 13:32 | 43.36198 | -0.61408 | 19426 ft | 403 kts | 92° |
| 2026-04-20 13:32 | 43.36064 | -0.57548 | 19942 ft | 406 kts | 92° |
| 2026-04-20 13:33 | 43.35924 | -0.53657 | 20476 ft | 409 kts | 92° |
| 2026-04-20 13:33 | 43.35781 | -0.49741 | 21012 ft | 412 kts | 92° |
| 2026-04-20 13:33 | 43.35634 | -0.45790 | 21534 ft | 416 kts | 92° |
| 2026-04-20 13:33 | 43.35483 | -0.41808 | 22047 ft | 419 kts | 92° |
| 2026-04-20 13:34 | 43.35328 | -0.37794 | 22570 ft | 422 kts | 92° |
| 2026-04-20 13:34 | 43.35171 | -0.33751 | 23059 ft | 425 kts | 92° |
| 2026-04-20 13:34 | 43.35013 | -0.29678 | 23548 ft | 429 kts | 92° |
| 2026-04-20 13:34 | 43.34856 | -0.25578 | 23953 ft | 432 kts | 92° |
| 2026-04-20 13:35 | 43.34697 | -0.21450 | 24357 ft | 435 kts | 92° |
| 2026-04-20 13:35 | 43.34533 | -0.17293 | 24737 ft | 437 kts | 93° |
| 2026-04-20 13:35 | 43.34367 | -0.13104 | 25136 ft | 440 kts | 93° |
| 2026-04-20 13:35 | 43.34197 | -0.08895 | 25505 ft | 443 kts | 93° |
| 2026-04-20 13:36 | 43.34026 | -0.04661 | 25881 ft | 445 kts | 93° |
| 2026-04-20 13:36 | 43.33852 | -0.00402 | 26239 ft | 448 kts | 93° |
| 2026-04-20 13:36 | 43.33674 | 0.03878 | 26597 ft | 450 kts | 93° |
| 2026-04-20 13:36 | 43.33494 | 0.08185 | 26941 ft | 453 kts | 93° |
| 2026-04-20 13:37 | 43.33416 | 0.12519 | 27268 ft | 455 kts | 86° |
| 2026-04-20 13:37 | 43.33785 | 0.16836 | 27599 ft | 457 kts | 77° |
| 2026-04-20 13:37 | 43.34598 | 0.21056 | 27933 ft | 458 kts | 72° |
| 2026-04-20 13:37 | 43.35502 | 0.25266 | 28259 ft | 461 kts | 72° |
| 2026-04-20 13:38 | 43.36404 | 0.29498 | 28581 ft | 463 kts | 72° |
| 2026-04-20 13:38 | 43.37306 | 0.33767 | 28893 ft | 466 kts | 72° |
| 2026-04-20 13:38 | 43.38204 | 0.38051 | 29200 ft | 468 kts | 72° |
| 2026-04-20 13:38 | 43.39106 | 0.42364 | 29510 ft | 470 kts | 72° |
| 2026-04-20 13:39 | 43.40011 | 0.46701 | 29811 ft | 473 kts | 72° |
| 2026-04-20 13:39 | 43.40921 | 0.51049 | 29944 ft | 471 kts | 72° |
| 2026-04-20 13:39 | 43.41799 | 0.55244 | 29959 ft | 456 kts | 72° |
| 2026-04-20 13:40 | 43.43521 | 0.63510 | 29974 ft | 447 kts | 72° |
| 2026-04-20 13:40 | 43.45217 | 0.71721 | 29969 ft | 446 kts | 72° |
| 2026-04-20 13:41 | 43.47553 | 0.79558 | 29970 ft | 442 kts | 58° |
| 2026-04-20 13:41 | 43.50543 | 0.86961 | 29977 ft | 442 kts | 58° |
| 2026-04-20 13:42 | 43.53513 | 0.94376 | 29973 ft | 442 kts | 58° |
| 2026-04-20 13:42 | 43.57958 | 1.05483 | 29974 ft | 442 kts | 58° |
| 2026-04-20 13:43 | 43.60623 | 1.12155 | 29966 ft | 441 kts | 58° |
| 2026-04-20 13:43 | 43.63580 | 1.19582 | 29966 ft | 441 kts | 58° |
| 2026-04-20 13:44 | 43.66527 | 1.27020 | 29961 ft | 441 kts | 59° |
| 2026-04-20 13:44 | 43.69782 | 1.34148 | 29965 ft | 438 kts | 50° |
| 2026-04-20 13:45 | 43.73408 | 1.40912 | 29960 ft | 438 kts | 50° |
| 2026-04-20 13:45 | 43.77029 | 1.47685 | 29963 ft | 438 kts | 50° |
| 2026-04-20 13:46 | 43.80640 | 1.54478 | 29967 ft | 438 kts | 50° |
| 2026-04-20 13:46 | 43.84221 | 1.61238 | 29969 ft | 438 kts | 50° |
| 2026-04-20 13:47 | 43.87829 | 1.68050 | 29971 ft | 438 kts | 50° |
| 2026-04-20 13:47 | 43.91437 | 1.74870 | 29985 ft | 439 kts | 50° |
| 2026-04-20 13:48 | 43.95036 | 1.81702 | 29979 ft | 439 kts | 50° |
| 2026-04-20 13:48 | 43.98583 | 1.88610 | 29983 ft | 439 kts | 52° |
| 2026-04-20 13:49 | 44.02041 | 1.95609 | 29988 ft | 440 kts | 52° |
| 2026-04-20 13:49 | 44.05491 | 2.02627 | 29986 ft | 440 kts | 52° |
| 2026-04-20 13:50 | 44.08953 | 2.09631 | 29992 ft | 439 kts | 52° |
| 2026-04-20 13:50 | 44.12418 | 2.16629 | 29996 ft | 439 kts | 52° |
| 2026-04-20 13:51 | 44.15884 | 2.23625 | 29992 ft | 439 kts | 52° |
| 2026-04-20 13:51 | 44.19338 | 2.30633 | 29989 ft | 439 kts | 52° |
| 2026-04-20 13:52 | 44.22787 | 2.37654 | 29988 ft | 439 kts | 52° |
| 2026-04-20 13:52 | 44.26214 | 2.44627 | 29990 ft | 439 kts | 52° |
| 2026-04-20 13:53 | 44.29655 | 2.51658 | 29988 ft | 439 kts | 53° |
| 2026-04-20 13:53 | 44.33095 | 2.58719 | 29986 ft | 440 kts | 53° |
| 2026-04-20 13:54 | 44.36533 | 2.65789 | 29991 ft | 440 kts | 53° |
| 2026-04-20 13:54 | 44.39969 | 2.72866 | 29987 ft | 440 kts | 53° |
| 2026-04-20 13:55 | 44.43408 | 2.79958 | 29986 ft | 441 kts | 53° |
| 2026-04-20 13:55 | 44.46843 | 2.87065 | 29981 ft | 441 kts | 53° |
| 2026-04-20 13:56 | 44.50276 | 2.94197 | 29973 ft | 442 kts | 53° |
| 2026-04-20 13:56 | 44.53710 | 3.01356 | 29973 ft | 443 kts | 53° |
| 2026-04-20 13:57 | 44.57151 | 3.08533 | 29970 ft | 443 kts | 53° |
| 2026-04-20 13:57 | 44.60590 | 3.15708 | 29967 ft | 444 kts | 53° |
| 2026-04-20 13:58 | 44.63803 | 3.23109 | 29963 ft | 446 kts | 58° |
| 2026-04-20 13:58 | 44.66665 | 3.30485 | 29962 ft | 447 kts | 59° |
| 2026-04-20 13:59 | 44.69621 | 3.38152 | 29976 ft | 457 kts | 58° |
| 2026-04-20 13:59 | 44.72788 | 3.46117 | 29969 ft | 475 kts | 58° |
| 2026-04-20 14:00 | 44.76043 | 3.54253 | 29975 ft | 478 kts | 58° |
| 2026-04-20 14:00 | 44.79305 | 3.62424 | 29984 ft | 479 kts | 58° |
| 2026-04-20 14:01 | 44.82489 | 3.70467 | 29352 ft | 459 kts | 57° |
| 2026-04-20 14:01 | 44.84023 | 3.74365 | 28469 ft | 451 kts | 58° |
| 2026-04-20 14:01 | 44.85534 | 3.78209 | 27605 ft | 444 kts | 57° |
| 2026-04-20 14:02 | 44.87019 | 3.81994 | 26758 ft | 438 kts | 57° |
| 2026-04-20 14:02 | 44.88481 | 3.85725 | 25936 ft | 432 kts | 57° |
| 2026-04-20 14:02 | 44.89923 | 3.89406 | 25151 ft | 426 kts | 57° |
| 2026-04-20 14:02 | 44.91346 | 3.93038 | 24382 ft | 420 kts | 57° |
| 2026-04-20 14:03 | 44.92749 | 3.96618 | 23661 ft | 415 kts | 57° |
| 2026-04-20 14:03 | 44.94138 | 4.00161 | 22842 ft | 409 kts | 57° |
| 2026-04-20 14:03 | 44.95503 | 4.03643 | 22040 ft | 403 kts | 57° |
| 2026-04-20 14:03 | 44.96851 | 4.07088 | 21256 ft | 398 kts | 57° |
| 2026-04-20 14:04 | 44.98176 | 4.10487 | 20491 ft | 393 kts | 57° |
| 2026-04-20 14:04 | 44.99484 | 4.13855 | 19748 ft | 388 kts | 57° |
| 2026-04-20 14:04 | 45.00772 | 4.17175 | 19084 ft | 382 kts | 57° |
| 2026-04-20 14:04 | 45.01927 | 4.20505 | 18629 ft | 373 kts | 66° |
| 2026-04-20 14:05 | 45.02776 | 4.23931 | 18215 ft | 369 kts | 67° |
| 2026-04-20 14:05 | 45.03617 | 4.27356 | 17758 ft | 368 kts | 68° |
| 2026-04-20 14:05 | 45.04454 | 4.30765 | 17343 ft | 366 kts | 68° |
| 2026-04-20 14:05 | 45.05285 | 4.34151 | 16936 ft | 365 kts | 68° |
| 2026-04-20 14:06 | 45.06117 | 4.37534 | 16532 ft | 363 kts | 68° |
| 2026-04-20 14:06 | 45.06943 | 4.40903 | 16134 ft | 362 kts | 68° |
| 2026-04-20 14:06 | 45.07764 | 4.44254 | 15736 ft | 360 kts | 68° |
| 2026-04-20 14:06 | 45.08576 | 4.47589 | 15340 ft | 358 kts | 68° |
| 2026-04-20 14:07 | 45.09383 | 4.50909 | 14948 ft | 356 kts | 69° |
| 2026-04-20 14:07 | 45.10184 | 4.54213 | 14550 ft | 354 kts | 69° |
| 2026-04-20 14:07 | 45.10983 | 4.57507 | 14149 ft | 353 kts | 69° |
| 2026-04-20 14:07 | 45.11766 | 4.60734 | 13815 ft | 350 kts | 69° |
| 2026-04-20 14:08 | 45.12552 | 4.63981 | 13471 ft | 346 kts | 69° |
| 2026-04-20 14:08 | 45.13328 | 4.67202 | 12991 ft | 346 kts | 69° |
| 2026-04-20 14:08 | 45.14098 | 4.70403 | 12640 ft | 342 kts | 69° |
| 2026-04-20 14:08 | 45.14860 | 4.73569 | 12313 ft | 338 kts | 69° |
| 2026-04-20 14:09 | 45.15615 | 4.76714 | 11951 ft | 336 kts | 69° |
| 2026-04-20 14:09 | 45.16398 | 4.79832 | 11529 ft | 335 kts | 63° |
| 2026-04-20 14:09 | 45.17606 | 4.82584 | 11168 ft | 327 kts | 46° |
| 2026-04-20 14:09 | 45.19293 | 4.84686 | 10783 ft | 319 kts | 29° |
| 2026-04-20 14:10 | 45.21290 | 4.85992 | 10412 ft | 313 kts | 13° |
| 2026-04-20 14:10 | 45.23346 | 4.86853 | 10276 ft | 303 kts | 13° |
| 2026-04-20 14:10 | 45.25325 | 4.87701 | 10038 ft | 292 kts | 13° |
| 2026-04-20 14:10 | 45.27259 | 4.88536 | 9442 ft | 289 kts | 14° |
| 2026-04-20 14:11 | 45.29097 | 4.89688 | 8829 ft | 290 kts | 28° |
| 2026-04-20 14:11 | 45.30785 | 4.91235 | 8314 ft | 285 kts | 30° |
| 2026-04-20 14:11 | 45.32419 | 4.92743 | 7896 ft | 276 kts | 30° |
| 2026-04-20 14:11 | 45.34005 | 4.94204 | 7492 ft | 269 kts | 30° |
| 2026-04-20 14:12 | 45.35558 | 4.95632 | 7100 ft | 262 kts | 30° |
| 2026-04-20 14:12 | 45.37071 | 4.97022 | 6715 ft | 256 kts | 30° |
| 2026-04-20 14:12 | 45.38559 | 4.98389 | 6321 ft | 254 kts | 30° |
| 2026-04-20 14:12 | 45.40041 | 4.99753 | 5917 ft | 254 kts | 29° |
| 2026-04-20 14:13 | 45.41515 | 5.01108 | 5506 ft | 250 kts | 30° |
| 2026-04-20 14:13 | 45.42965 | 5.02443 | 5119 ft | 248 kts | 30° |
| 2026-04-20 14:13 | 45.44389 | 5.03755 | 4913 ft | 237 kts | 31° |
| 2026-04-20 14:13 | 45.45762 | 5.05021 | 4821 ft | 232 kts | 31° |
| 2026-04-20 14:14 | 45.47083 | 5.06239 | 4728 ft | 228 kts | 31° |
| 2026-04-20 14:14 | 45.48405 | 5.07455 | 4629 ft | 224 kts | 30° |
| 2026-04-20 14:14 | 45.49706 | 5.08655 | 4526 ft | 221 kts | 31° |
| 2026-04-20 14:14 | 45.50988 | 5.09838 | 4411 ft | 217 kts | 31° |
| 2026-04-20 14:15 | 45.52241 | 5.10958 | 4320 ft | 207 kts | 24° |
| 2026-04-20 14:15 | 45.53588 | 5.11519 | 4241 ft | 201 kts | 4° |
| 2026-04-20 14:15 | 45.55003 | 5.11445 | 3987 ft | 203 kts | 354° |
| 2026-04-20 14:15 | 45.56395 | 5.11275 | 3782 ft | 201 kts | 355° |
| 2026-04-20 14:16 | 45.57777 | 5.11104 | 3596 ft | 198 kts | 354° |
| 2026-04-20 14:16 | 45.59137 | 5.10936 | 3261 ft | 196 kts | 354° |
| 2026-04-20 14:16 | 45.60474 | 5.10772 | 2996 ft | 186 kts | 355° |
| 2026-04-20 14:16 | 45.61673 | 5.10626 | 2982 ft | 160 kts | 354° |
| 2026-04-20 14:17 | 45.62723 | 5.10500 | 2974 ft | 146 kts | 355° |
| 2026-04-20 14:17 | 45.63728 | 5.10384 | 2737 ft | 143 kts | 355° |
| 2026-04-20 14:17 | 45.64731 | 5.10263 | 2416 ft | 147 kts | 354° |
| 2026-04-20 14:17 | 45.65761 | 5.10132 | 2013 ft | 149 kts | 355° |
| 2026-04-20 14:18 | 45.66793 | 5.09994 | 1730 ft | 146 kts | 355° |
| 2026-04-20 14:18 | 45.67792 | 5.09878 | 1450 ft | 142 kts | 356° |
| 2026-04-20 14:18 | 45.68757 | 5.09769 | 1217 ft | 138 kts | 356° |
| 2026-04-20 14:18 | 45.69704 | 5.09661 | 1060 ft | 134 kts | 354° |
| 2026-04-20 14:19 | 45.70518 | 5.09551 | 958 ft | 134 kts | 354° |
| 2026-04-20 14:19 | 45.71445 | 5.09436 | 842 ft | 133 kts | 353° |
| 2026-04-20 14:19 | 45.72261 | 5.09340 | 815 ft | 100 kts | 355° |
| 2026-04-20 14:19 | 45.72628 | 5.09294 | 808 ft | 51 kts | 353° |
| 2026-04-20 14:20 | 45.72951 | 5.09088 | 797 ft | 25 kts | 311° |
| 2026-04-20 14:20 | 45.72965 | 5.08843 | 791 ft | 26 kts | 267° |
| 2026-04-20 14:20 | 45.72953 | 5.08588 | 791 ft | 26 kts | 263° |
| 2026-04-20 14:20 | 45.72923 | 5.08386 | 790 ft | 19 kts | 243° |
| 2026-04-20 14:21 | 45.72854 | 5.08349 | 790 ft | 16 kts | 177° |
| 2026-04-20 14:21 | 45.72753 | 5.08361 | 791 ft | 13 kts | 174° |
| 2026-04-20 14:21 | 45.72667 | 5.08376 | 792 ft | 11 kts | 173° |
| 2026-04-20 14:21 | 45.72601 | 5.08387 | 794 ft | 7 kts | 175° |
| 2026-04-20 14:22 | 45.72570 | 5.08391 | 796 ft | 3 kts | 176° |
| 2026-04-20 14:22 | 45.72477 | 5.08398 | 796 ft | 27 kts | 178° |
| 2026-04-20 14:22 | 45.72269 | 5.08428 | 800 ft | 30 kts | 172° |
| 2026-04-20 14:22 | 45.72086 | 5.08449 | 803 ft | 12 kts | 175° |
| 2026-04-20 14:23 | 45.72003 | 5.08460 | 802 ft | 12 kts | 174° |
| 2026-04-20 14:23 | 45.71946 | 5.08423 | 801 ft | 9 kts | 271° |
| 2026-04-20 14:23 | 45.71964 | 5.08326 | 799 ft | 12 kts | 285° |
| 2026-04-20 14:23 | 45.71941 | 5.08225 | 797 ft | 12 kts | 209° |
| 2026-04-20 14:24 | 45.71864 | 5.08192 | 797 ft | 13 kts | 195° |
| 2026-04-20 14:24 | 45.71800 | 5.08145 | 797 ft | 7 kts | 269° |
| 2026-04-20 14:24 | 45.71817 | 5.08086 | 796 ft | 7 kts | 300° |
| 2026-04-20 14:24 | 45.71828 | 5.08057 | 796 ft | 0 kts | 298° |
| 2026-04-20 14:25 | 45.71830 | 5.08052 | 796 ft | 0 kts | 298° |
| 2026-04-20 14:25 | 45.71831 | 5.08050 | 796 ft | 1 kts | 297° |
| 2026-04-20 14:25 | 45.71833 | 5.08044 | 796 ft | 0 kts | 297° |